Main page
METAR-TAF:

METAR-TAF

Airports :

Current weather observation

The report was made 39 minutes ago, at 21:00 UTC
Wind 5 kt from the North
Temperature 19°C
Humidity 83%
Pressure 1017 hPa
Visibility: 6000 m
Few clouds at a height of 3000 ft
Broken clouds at a height of 14000 ft

METAR: OTBD 212100Z 36005KT 6000 FEW030 BKN140 19/16 Q1017 NOSIG

Time: 21:39 (21:39 UTC)

Forecast

The report was made 4 hours and 39 minutes ago, at 17:00 UTC
Forecast valid from 21 at 18 UTC to 22 at 24 UTC
Wind 5 kt from the North/Northeast
Visibility: 8000 m
Broken clouds at a height of 12000 ft
light rain
Probability 30% :
Temporary
from 21 at 23 UTC to 22 at 03 UTC
Visibility: 5000 m
haze
Becoming
from 22 at 06 UTC to 22 at 08 UTC
Wind 8 kt from the East

TAF: OTBD 211700Z 2118/2224 03005KT 8000 -RA BKN120 PROB30 TEMPO 2123/2203 5000 HZ BECMG 2206/2208 10008KT

Weather observations and forecasts of more than 4000 airports (METAR and TAF reports).

The available stations are represented by yellow and red dots on the map.

Hover mouse over dot to see the name of the station.

Then click to see weather observations and forecasts.

To change the map : click on the green buttons with a black cross to zoom in, on the green button with a dash to zoom out, or on the green arrows for adjacent maps.


METAR-TAF: